createdAt,value
2023-02-07T00:01:34.040Z,0.91
2023-02-07T00:04:03.576Z,0.80
2023-02-07T00:06:33.596Z,0.77
2023-02-07T00:09:02.893Z,0.82
2023-02-07T00:11:30.897Z,0.88
2023-02-07T00:14:00.025Z,0.77
2023-02-07T00:16:29.566Z,0.77
2023-02-07T00:19:00.159Z,0.63
2023-02-07T00:21:46.122Z,0.55
2023-02-07T00:24:15.564Z,0.64
2023-02-07T00:26:47.340Z,0.66
2023-02-07T00:29:16.026Z,0.56
2023-02-07T00:31:45.167Z,0.61
2023-02-07T00:34:15.945Z,0.54
2023-02-07T00:36:46.878Z,0.55
2023-02-07T00:39:18.354Z,0.66
2023-02-07T00:41:48.628Z,0.65
2023-02-07T00:44:17.777Z,0.78
2023-02-07T00:46:48.952Z,0.75
2023-02-07T00:49:19.018Z,0.69
2023-02-07T00:51:48.728Z,0.69
2023-02-07T00:54:16.914Z,0.79
2023-02-07T00:56:44.973Z,0.94
2023-02-07T00:59:12.744Z,1.06
2023-02-07T01:01:40.430Z,1.28
2023-02-07T01:04:08.163Z,1.16
2023-02-07T01:06:37.074Z,1.34
2023-02-07T01:09:07.288Z,1.36
2023-02-07T01:11:35.311Z,1.32
2023-02-07T01:14:04.033Z,1.24
2023-02-07T01:16:34.103Z,1.30
2023-02-07T01:19:03.675Z,1.37
2023-02-07T01:21:31.637Z,1.34
2023-02-07T01:23:59.357Z,1.45
2023-02-07T01:26:29.542Z,1.41
2023-02-07T01:28:57.910Z,1.32
2023-02-07T01:31:26.215Z,1.42
2023-02-07T01:33:55.943Z,1.50
2023-02-07T01:36:24.144Z,1.42
2023-02-07T01:38:53.065Z,1.54
2023-02-07T01:41:21.412Z,1.53
2023-02-07T01:44:00.175Z,1.37
2023-02-07T01:46:29.149Z,1.45
2023-02-07T01:49:00.653Z,1.35
2023-02-07T01:51:31.075Z,1.46
2023-02-07T01:54:04.288Z,1.44
2023-02-07T01:56:34.941Z,1.25
2023-02-07T01:59:06.758Z,1.22
2023-02-07T02:01:35.193Z,1.18
2023-02-07T02:04:03.118Z,1.01
2023-02-07T02:06:34.399Z,1.33
2023-02-07T02:09:10.430Z,1.21
2023-02-07T02:11:57.058Z,1.05
2023-02-07T02:14:43.007Z,1.07
2023-02-07T02:17:17.921Z,1.22
2023-02-07T02:20:19.531Z,1.04
2023-02-07T02:23:13.773Z,1.15
2023-02-07T02:26:28.993Z,1.11
2023-02-07T02:29:29.236Z,1.04
2023-02-07T02:32:26.740Z,0.83
2023-02-07T02:35:01.941Z,0.66
2023-02-07T02:37:43.003Z,0.70
2023-02-07T02:40:18.273Z,0.63
2023-02-07T02:42:53.499Z,0.76
2023-02-07T02:45:28.935Z,0.58
2023-02-07T02:47:57.239Z,0.68
2023-02-07T02:50:29.932Z,0.61
2023-02-07T02:52:58.544Z,0.57
2023-02-07T02:55:49.819Z,0.51
2023-02-07T02:58:27.181Z,0.59
2023-02-07T03:01:06.276Z,0.56
2023-02-07T03:03:55.915Z,0.43
2023-02-07T03:06:55.226Z,0.31
2023-02-07T03:09:34.113Z,0.35
2023-02-07T03:12:10.651Z,0.27
2023-02-07T03:14:51.797Z,0.26
2023-02-07T03:17:23.923Z,0.17
2023-02-07T03:19:59.662Z,0.10
2023-02-07T03:22:30.839Z,0.04
2023-02-07T03:25:01.691Z,-0.03
2023-02-07T03:27:32.656Z,-0.10
2023-02-07T03:30:04.871Z,-0.26
2023-02-07T03:32:37.506Z,-0.35
2023-02-07T03:35:11.729Z,-0.44
2023-02-07T03:37:44.074Z,-0.48
2023-02-07T03:40:13.274Z,-0.40
2023-02-07T03:42:44.485Z,-0.45
2023-02-07T03:45:15.999Z,-0.46
2023-02-07T03:47:44.045Z,-0.50
2023-02-07T03:50:12.881Z,-0.57
2023-02-07T03:52:42.112Z,-0.57
2023-02-07T03:55:10.895Z,-0.50
2023-02-07T03:57:39.176Z,-0.52
2023-02-07T04:00:08.954Z,-0.48
2023-02-07T04:02:44.052Z,-0.59
2023-02-07T04:05:11.873Z,-0.67
2023-02-07T04:07:39.840Z,-0.74
2023-02-07T04:10:11.141Z,-0.84
2023-02-07T04:12:38.819Z,-0.86
2023-02-07T04:15:08.266Z,-0.92
2023-02-07T04:17:36.973Z,-0.92
2023-02-07T04:20:05.382Z,-0.93
2023-02-07T04:22:33.533Z,-0.91
2023-02-07T04:25:01.296Z,-0.90
2023-02-07T04:27:30.508Z,-0.90
2023-02-07T04:29:58.311Z,-0.69
2023-02-07T04:32:25.996Z,-0.80
2023-02-07T04:34:53.712Z,-0.86
2023-02-07T04:37:21.544Z,-0.87
2023-02-07T04:39:49.657Z,-0.85
2023-02-07T04:42:17.419Z,-0.85
2023-02-07T04:44:46.723Z,-0.91
2023-02-07T04:47:14.471Z,-0.86
2023-02-07T04:49:42.484Z,-0.87
2023-02-07T04:52:10.253Z,-0.80
2023-02-07T04:54:39.026Z,-0.81
2023-02-07T04:57:07.081Z,-0.82
2023-02-07T04:59:34.894Z,-0.86
2023-02-07T05:02:04.414Z,-0.89
2023-02-07T05:04:32.265Z,-0.91
2023-02-07T05:07:00.273Z,-0.97
2023-02-07T05:09:28.233Z,-0.99
2023-02-07T05:11:55.865Z,-1.03
2023-02-07T05:14:23.842Z,-1.05
2023-02-07T05:16:51.544Z,-1.05
2023-02-07T05:19:20.697Z,-1.04
2023-02-07T05:21:48.413Z,-1.10
2023-02-07T05:24:16.101Z,-1.12
2023-02-07T05:26:43.721Z,-1.15
2023-02-07T05:29:11.787Z,-1.14
2023-02-07T05:31:57.216Z,-1.18
2023-02-07T05:34:26.366Z,-1.19
2023-02-07T05:36:54.329Z,-1.24
2023-02-07T05:39:22.053Z,-1.34
2023-02-07T05:41:49.774Z,-1.44
2023-02-07T05:44:17.710Z,-1.46
2023-02-07T05:46:45.349Z,-1.42
2023-02-07T05:49:13.093Z,-1.38
2023-02-07T05:51:42.119Z,-1.37
2023-02-07T05:54:09.885Z,-1.38
2023-02-07T05:56:37.616Z,-1.39
2023-02-07T05:59:05.567Z,-1.37
2023-02-07T06:01:33.391Z,-1.42
2023-02-07T06:04:01.349Z,-1.46
2023-02-07T06:06:29.469Z,-1.49
2023-02-07T06:08:58.616Z,-1.54
2023-02-07T06:11:26.724Z,-1.51
2023-02-07T06:13:54.717Z,-1.51
2023-02-07T06:16:22.829Z,-1.48
2023-02-07T06:18:50.495Z,-1.55
2023-02-07T06:21:18.472Z,-1.45
2023-02-07T06:23:46.901Z,-1.50
2023-02-07T06:26:16.297Z,-1.50
2023-02-07T06:28:44.490Z,-1.53
2023-02-07T06:31:12.460Z,-1.55
2023-02-07T06:33:40.156Z,-1.59
2023-02-07T06:36:08.541Z,-1.65
2023-02-07T06:38:36.284Z,-1.66
2023-02-07T06:41:04.070Z,-1.75
2023-02-07T06:43:33.152Z,-1.78
2023-02-07T06:46:00.895Z,-1.80
2023-02-07T06:48:28.836Z,-1.83
2023-02-07T06:50:56.606Z,-1.84
2023-02-07T06:53:24.305Z,-1.84
2023-02-07T06:55:52.207Z,-1.90
2023-02-07T06:58:19.952Z,-1.89
2023-02-07T07:00:49.454Z,-1.86
2023-02-07T07:03:18.651Z,-1.86
2023-02-07T07:05:46.348Z,-1.83
2023-02-07T07:08:18.244Z,-1.81
2023-02-07T07:10:46.291Z,-1.71
2023-02-07T07:13:14.030Z,-1.55
2023-02-07T07:15:41.971Z,-1.54
2023-02-07T07:18:11.227Z,-1.61
2023-02-07T07:20:38.948Z,-1.64
2023-02-07T07:23:07.374Z,-1.64
2023-02-07T07:25:35.066Z,-1.64
2023-02-07T07:28:02.846Z,-1.61
2023-02-07T07:30:31.342Z,-1.61
2023-02-07T07:33:00.230Z,-1.53
2023-02-07T07:35:30.007Z,-1.51
2023-02-07T07:37:58.144Z,-1.47
2023-02-07T07:40:26.684Z,-1.35
2023-02-07T07:42:54.669Z,-1.39
2023-02-07T07:45:31.712Z,-1.32
2023-02-07T07:47:59.575Z,-1.23
2023-02-07T07:50:28.739Z,-0.90
2023-02-07T07:52:56.762Z,-0.94
2023-02-07T07:55:24.810Z,-0.76
2023-02-07T07:57:54.075Z,-0.71
2023-02-07T08:00:22.237Z,-0.80
2023-02-07T08:02:50.335Z,-0.69
2023-02-07T08:05:18.736Z,-0.55
2023-02-07T08:07:47.842Z,-0.53
2023-02-07T08:10:15.731Z,-0.61
2023-02-07T08:12:44.368Z,-0.50
2023-02-07T08:15:14.685Z,-0.33
2023-02-07T08:17:43.048Z,-0.36
2023-02-07T08:20:12.966Z,-0.41
2023-02-07T08:22:43.138Z,-0.36
2023-02-07T08:25:12.614Z,-0.18
2023-02-07T08:27:40.656Z,-0.28
2023-02-07T08:30:11.826Z,-0.18
2023-02-07T08:32:40.417Z,-0.14
2023-02-07T08:35:09.689Z,-0.04
2023-02-07T08:37:39.412Z,-0.09
2023-02-07T08:40:08.623Z,0.09
2023-02-07T08:42:41.831Z,-0.05
2023-02-07T08:45:11.457Z,0.20
2023-02-07T08:47:40.150Z,0.13
2023-02-07T08:50:09.292Z,0.12
2023-02-07T08:52:38.908Z,0.25
2023-02-07T08:55:07.683Z,0.31
2023-02-07T08:57:39.787Z,0.43
2023-02-07T09:00:09.273Z,0.24
2023-02-07T09:02:37.613Z,0.47
2023-02-07T09:05:05.608Z,0.33
2023-02-07T09:07:33.518Z,0.57
2023-02-07T09:10:03.114Z,0.54
2023-02-07T09:12:31.107Z,0.66
2023-02-07T09:15:00.590Z,0.58
2023-02-07T09:17:28.524Z,0.76
2023-02-07T09:19:56.852Z,0.70
2023-02-07T09:22:24.684Z,0.69
2023-02-07T09:24:52.334Z,0.66
2023-02-07T09:27:20.347Z,0.74
2023-02-07T09:29:48.035Z,0.90
2023-02-07T09:32:17.177Z,0.93
2023-02-07T09:34:45.303Z,1.08
2023-02-07T09:37:13.074Z,0.89
2023-02-07T09:39:42.852Z,1.08
2023-02-07T09:42:20.396Z,0.85
2023-02-07T09:44:55.520Z,0.78
2023-02-07T09:47:26.427Z,1.01
2023-02-07T09:49:59.532Z,1.22
2023-02-07T09:52:32.199Z,1.13
2023-02-07T09:55:01.386Z,0.99
2023-02-07T09:57:37.786Z,1.03
2023-02-07T10:00:19.565Z,1.18
2023-02-07T10:02:57.550Z,1.22
2023-02-07T10:05:30.834Z,1.22
2023-02-07T10:07:58.791Z,1.28
2023-02-07T10:10:35.285Z,1.32
2023-02-07T10:13:17.696Z,1.34
2023-02-07T10:15:58.065Z,1.37
2023-02-07T10:18:45.770Z,1.18
2023-02-07T10:21:20.938Z,1.30
2023-02-07T10:24:09.536Z,1.47
2023-02-07T10:26:41.199Z,1.59
2023-02-07T10:29:35.411Z,1.61
2023-02-07T10:32:13.607Z,1.61
2023-02-07T10:34:47.736Z,1.55
2023-02-07T10:37:20.925Z,1.69
2023-02-07T10:39:58.336Z,1.72
2023-02-07T10:42:28.255Z,1.73
2023-02-07T10:44:56.257Z,1.78
2023-02-07T10:47:26.120Z,1.89
2023-02-07T10:49:56.615Z,2.07
2023-02-07T10:52:30.565Z,2.01
2023-02-07T10:55:00.852Z,2.27
2023-02-07T10:57:30.702Z,2.18
2023-02-07T11:00:01.187Z,2.03
2023-02-07T11:02:54.856Z,2.27
2023-02-07T11:05:55.664Z,2.37
2023-02-07T11:08:26.775Z,2.29
2023-02-07T11:10:58.231Z,2.41
2023-02-07T11:13:29.337Z,2.31
2023-02-07T11:16:01.536Z,2.47
2023-02-07T11:18:37.750Z,2.53
2023-02-07T11:21:19.784Z,2.43
2023-02-07T11:23:48.668Z,2.33
2023-02-07T11:26:18.770Z,2.38
2023-02-07T11:28:47.582Z,2.49
2023-02-07T11:31:20.008Z,2.51
2023-02-07T11:33:49.146Z,2.51
2023-02-07T11:36:35.104Z,2.91
2023-02-07T11:39:03.059Z,2.73
2023-02-07T11:41:34.754Z,2.66
2023-02-07T11:44:05.008Z,2.74
2023-02-07T11:46:36.229Z,2.68
2023-02-07T11:49:06.824Z,2.81
2023-02-07T11:51:36.691Z,2.69
2023-02-07T11:54:07.835Z,2.70
2023-02-07T11:56:40.785Z,2.76
2023-02-07T11:59:16.405Z,2.83
2023-02-07T12:01:45.764Z,2.86
2023-02-07T12:04:18.553Z,2.85
2023-02-07T12:06:53.573Z,2.90
2023-02-07T12:09:33.183Z,3.16
2023-02-07T12:12:07.162Z,3.54
2023-02-07T12:14:40.760Z,3.49
2023-02-07T12:17:14.475Z,3.64
2023-02-07T12:19:52.819Z,3.74
2023-02-07T12:22:26.970Z,3.70
2023-02-07T12:24:59.301Z,4.24
2023-02-07T12:27:33.036Z,3.93
2023-02-07T12:30:06.707Z,4.21
2023-02-07T12:32:42.500Z,3.97
2023-02-07T12:35:18.814Z,4.08
2023-02-07T12:38:18.377Z,4.03
2023-02-07T12:40:54.363Z,4.07
2023-02-07T12:43:30.231Z,4.20
2023-02-07T12:46:19.677Z,4.19
2023-02-07T12:49:03.097Z,4.28
2023-02-07T12:51:39.374Z,4.68
2023-02-07T12:54:29.206Z,4.91
2023-02-07T12:57:04.719Z,4.76
2023-02-07T12:59:44.047Z,4.68
2023-02-07T13:02:31.907Z,4.73
2023-02-07T13:05:32.458Z,4.80
2023-02-07T13:08:13.899Z,4.35
2023-02-07T13:10:53.215Z,4.32
2023-02-07T13:13:26.574Z,4.22
2023-02-07T13:15:59.696Z,4.52
2023-02-07T13:18:37.499Z,4.45
2023-02-07T13:21:17.612Z,4.36
2023-02-07T13:23:49.282Z,4.23
2023-02-07T13:26:21.403Z,4.14
2023-02-07T13:28:54.652Z,4.52
2023-02-07T13:31:26.584Z,4.39
2023-02-07T13:33:55.298Z,4.39
2023-02-07T13:36:33.364Z,4.16
2023-02-07T13:39:11.250Z,4.40
2023-02-07T13:41:54.228Z,4.37
2023-02-07T13:44:29.265Z,4.28
2023-02-07T13:47:17.209Z,4.01
2023-02-07T13:49:52.222Z,3.85
2023-02-07T13:52:29.474Z,3.93
2023-02-07T13:55:07.712Z,3.80
2023-02-07T13:58:02.631Z,3.93
2023-02-07T14:00:32.503Z,3.98
2023-02-07T14:03:04.444Z,3.69
2023-02-07T14:05:34.249Z,3.57
2023-02-07T14:08:04.762Z,3.61
2023-02-07T14:10:47.536Z,3.52
2023-02-07T14:13:32.372Z,3.62
2023-02-07T14:16:05.217Z,3.66
2023-02-07T14:18:45.496Z,3.75
2023-02-07T14:21:38.584Z,3.75
2023-02-07T14:24:31.952Z,3.78
2023-02-07T14:27:05.168Z,4.01
2023-02-07T14:29:57.030Z,3.90
2023-02-07T14:32:39.649Z,4.02
2023-02-07T14:35:31.724Z,3.95
2023-02-07T14:38:13.654Z,4.03
2023-02-07T14:41:09.678Z,4.02
2023-02-07T14:44:07.998Z,3.90
2023-02-07T14:46:41.770Z,4.13
2023-02-07T14:49:16.163Z,3.85
2023-02-07T14:51:49.260Z,3.85
2023-02-07T14:54:23.204Z,3.83
2023-02-07T14:57:00.275Z,3.82
2023-02-07T14:59:33.803Z,3.76
2023-02-07T15:02:37.290Z,3.90
2023-02-07T15:05:20.362Z,3.63
2023-02-07T15:07:50.069Z,3.79
2023-02-07T15:10:23.863Z,3.73
2023-02-07T15:12:55.931Z,3.71
2023-02-07T15:15:27.114Z,3.91
2023-02-07T15:17:59.472Z,3.67
2023-02-07T15:20:31.684Z,3.59
2023-02-07T15:23:01.800Z,3.60
2023-02-07T15:25:30.920Z,3.53
2023-02-07T15:28:04.474Z,3.53
2023-02-07T15:30:34.378Z,3.44
2023-02-07T15:33:13.247Z,3.32
2023-02-07T15:35:41.698Z,3.25
2023-02-07T15:38:18.034Z,3.03
2023-02-07T15:40:45.964Z,3.21
2023-02-07T15:43:37.957Z,3.11
2023-02-07T15:46:09.786Z,3.04
2023-02-07T15:48:50.750Z,2.96
2023-02-07T15:51:21.920Z,2.83
2023-02-07T15:53:52.297Z,2.73
2023-02-07T15:56:21.469Z,2.67
2023-02-07T15:58:51.264Z,2.63
2023-02-07T16:01:25.488Z,2.55
2023-02-07T16:04:00.153Z,2.75
2023-02-07T16:06:30.333Z,2.63
2023-02-07T16:09:00.812Z,2.76
2023-02-07T16:11:38.194Z,2.67
2023-02-07T16:14:25.376Z,2.47
2023-02-07T16:16:55.077Z,2.51
2023-02-07T16:19:28.071Z,2.39
2023-02-07T16:22:07.082Z,2.36
2023-02-07T16:24:38.129Z,2.28
2023-02-07T16:27:07.997Z,2.21
2023-02-07T16:29:37.287Z,2.25
2023-02-07T16:32:05.898Z,2.13
2023-02-07T16:34:35.199Z,2.10
2023-02-07T16:37:03.016Z,2.13
2023-02-07T16:39:30.959Z,2.12
2023-02-07T16:42:04.505Z,1.95
2023-02-07T16:44:35.697Z,1.81
2023-02-07T16:47:04.211Z,1.77
2023-02-07T16:49:33.396Z,1.75
2023-02-07T16:52:02.674Z,1.73
2023-02-07T16:54:30.633Z,1.71
2023-02-07T16:57:03.819Z,1.77
2023-02-07T16:59:32.137Z,1.81
2023-02-07T17:02:00.203Z,1.86
2023-02-07T17:04:28.297Z,1.82
2023-02-07T17:06:56.337Z,1.73
2023-02-07T17:09:26.695Z,1.82
2023-02-07T17:11:55.499Z,1.79
2023-02-07T17:14:23.811Z,1.79
2023-02-07T17:16:53.272Z,1.76
2023-02-07T17:19:27.602Z,1.91
2023-02-07T17:21:56.548Z,1.88
2023-02-07T17:24:26.425Z,1.87
2023-02-07T17:26:56.499Z,1.79
2023-02-07T17:29:25.972Z,1.68
2023-02-07T17:31:53.977Z,1.69
2023-02-07T17:34:23.341Z,1.60
2023-02-07T17:36:52.039Z,1.53
2023-02-07T17:39:20.854Z,1.43
2023-02-07T17:41:50.192Z,1.37
2023-02-07T17:44:21.669Z,1.32
2023-02-07T17:46:49.636Z,1.33
2023-02-07T17:49:18.889Z,1.29
2023-02-07T17:51:46.615Z,1.25
2023-02-07T17:54:14.548Z,1.27
2023-02-07T17:56:42.358Z,1.24
2023-02-07T17:59:22.596Z,1.17
2023-02-07T18:01:50.372Z,1.16
2023-02-07T18:04:18.338Z,1.17
2023-02-07T18:06:46.019Z,1.19
2023-02-07T18:09:18.399Z,1.24
2023-02-07T18:11:46.247Z,1.16
2023-02-07T18:14:15.354Z,1.14
2023-02-07T18:16:43.500Z,1.12
2023-02-07T18:19:15.361Z,1.09
2023-02-07T18:21:44.907Z,1.06
2023-02-07T18:24:13.390Z,1.03
2023-02-07T18:26:41.269Z,0.96
2023-02-07T18:29:09.425Z,0.92
2023-02-07T18:31:39.431Z,0.93
2023-02-07T18:34:07.236Z,0.92
2023-02-07T18:36:40.572Z,0.90
2023-02-07T18:39:09.216Z,0.83
2023-02-07T18:41:36.976Z,0.76
2023-02-07T18:44:05.285Z,0.74
2023-02-07T18:46:37.265Z,0.72
2023-02-07T18:49:06.553Z,0.64
2023-02-07T18:51:37.320Z,0.61
2023-02-07T18:54:05.935Z,0.55
2023-02-07T18:56:35.792Z,0.44
2023-02-07T18:59:04.168Z,0.40
2023-02-07T19:01:35.029Z,0.40
2023-02-07T19:04:03.797Z,0.45
2023-02-07T19:06:35.289Z,0.43
2023-02-07T19:09:03.625Z,0.42
2023-02-07T19:11:32.217Z,0.39
2023-02-07T19:14:00.129Z,0.38
2023-02-07T19:16:28.108Z,0.37
2023-02-07T19:19:05.057Z,0.37
2023-02-07T19:21:35.256Z,0.34
2023-02-07T19:24:06.698Z,0.30
2023-02-07T19:26:35.507Z,0.23
2023-02-07T19:29:05.209Z,0.20
2023-02-07T19:31:35.182Z,0.12
2023-02-07T19:34:03.194Z,0.06
2023-02-07T19:36:32.115Z,-0.03
2023-02-07T19:39:05.405Z,-0.08
2023-02-07T19:41:34.712Z,-0.09
2023-02-07T19:44:02.889Z,-0.08
2023-02-07T19:46:32.417Z,-0.02
2023-02-07T19:49:01.102Z,-0.02
2023-02-07T19:51:32.115Z,-0.07
2023-02-07T19:54:05.183Z,-0.12
2023-02-07T19:56:36.568Z,-0.16
2023-02-07T19:59:07.522Z,-0.18
2023-02-07T20:01:38.051Z,-0.15
2023-02-07T20:04:07.099Z,-0.15
2023-02-07T20:06:36.373Z,-0.17
2023-02-07T20:09:08.128Z,-0.09
2023-02-07T20:11:36.804Z,-0.10
2023-02-07T20:14:05.937Z,-0.14
2023-02-07T20:16:38.939Z,-0.18
2023-02-07T20:19:08.665Z,-0.21
2023-02-07T20:21:38.581Z,-0.20
2023-02-07T20:24:09.303Z,-0.20
2023-02-07T20:26:39.969Z,-0.20
2023-02-07T20:29:11.185Z,-0.20
2023-02-07T20:31:40.351Z,-0.20
2023-02-07T20:34:09.004Z,-0.22
2023-02-07T20:36:41.345Z,-0.25
2023-02-07T20:39:12.854Z,-0.31
2023-02-07T20:41:43.299Z,-0.33
2023-02-07T20:44:14.087Z,-0.37
2023-02-07T20:46:43.793Z,-0.39
2023-02-07T20:49:14.536Z,-0.38
2023-02-07T20:51:43.869Z,-0.36
2023-02-07T20:54:14.080Z,-0.38
2023-02-07T20:56:42.215Z,-0.38
2023-02-07T20:59:14.638Z,-0.39
2023-02-07T21:01:43.113Z,-0.40
2023-02-07T21:04:11.287Z,-0.42
2023-02-07T21:06:39.597Z,-0.50
2023-02-07T21:09:08.594Z,-0.57
2023-02-07T21:11:40.534Z,-0.59
2023-02-07T21:14:11.287Z,-0.62
2023-02-07T21:16:40.477Z,-0.67
2023-02-07T21:19:08.764Z,-0.69
2023-02-07T21:21:37.149Z,-0.73
2023-02-07T21:24:05.629Z,-0.78
2023-02-07T21:26:34.344Z,-0.83
2023-02-07T21:29:06.285Z,-0.80
2023-02-07T21:31:36.221Z,-0.78
2023-02-07T21:34:05.001Z,-0.75
2023-02-07T21:36:37.653Z,-0.76
2023-02-07T21:39:09.158Z,-0.75
2023-02-07T21:41:38.939Z,-0.75
2023-02-07T21:44:08.605Z,-0.78
2023-02-07T21:46:40.653Z,-0.83
2023-02-07T21:49:10.566Z,-0.83
2023-02-07T21:51:39.320Z,-0.84
2023-02-07T21:54:07.890Z,-0.83
2023-02-07T21:56:39.273Z,-0.85
2023-02-07T21:59:11.657Z,-0.89
2023-02-07T22:01:40.486Z,-0.89
2023-02-07T22:04:14.740Z,-0.93
2023-02-07T22:06:45.053Z,-0.93
2023-02-07T22:09:14.898Z,-0.92
2023-02-07T22:11:43.906Z,-0.90
2023-02-07T22:14:14.029Z,-0.90
2023-02-07T22:16:42.626Z,-0.96
2023-02-07T22:19:17.740Z,-0.95
2023-02-07T22:21:47.269Z,-0.95
2023-02-07T22:24:17.766Z,-0.94
2023-02-07T22:26:46.403Z,-0.96
2023-02-07T22:29:15.492Z,-1.00
2023-02-07T22:31:43.924Z,-1.04
2023-02-07T22:34:13.578Z,-0.99
2023-02-07T22:36:44.384Z,-0.96
2023-02-07T22:39:13.936Z,-0.92
2023-02-07T22:41:41.930Z,-0.91
2023-02-07T22:44:10.543Z,-0.93
2023-02-07T22:46:40.277Z,-1.01
2023-02-07T22:49:08.191Z,-1.03
2023-02-07T22:51:37.774Z,-1.04
2023-02-07T22:54:07.883Z,-1.07
2023-02-07T22:56:38.695Z,-1.19
2023-02-07T22:59:07.393Z,-1.23
2023-02-07T23:01:38.678Z,-1.19
2023-02-07T23:04:11.313Z,-1.19
2023-02-07T23:06:39.642Z,-1.24
2023-02-07T23:09:07.650Z,-1.20
2023-02-07T23:11:35.987Z,-1.25
2023-02-07T23:14:04.970Z,-1.22
2023-02-07T23:16:33.384Z,-1.27
2023-02-07T23:19:04.863Z,-1.26
2023-02-07T23:21:34.018Z,-1.24
2023-02-07T23:24:01.769Z,-1.26
2023-02-07T23:26:29.609Z,-1.24
2023-02-07T23:28:57.940Z,-1.24
2023-02-07T23:31:26.483Z,-1.23
2023-02-07T23:33:54.283Z,-1.24
2023-02-07T23:36:23.051Z,-1.27
2023-02-07T23:38:52.483Z,-1.28
2023-02-07T23:41:20.464Z,-1.25
2023-02-07T23:43:48.352Z,-1.22
2023-02-07T23:46:17.604Z,-1.25
2023-02-07T23:48:45.860Z,-1.26
2023-02-07T23:51:15.024Z,-1.28
2023-02-07T23:53:43.187Z,-1.29
2023-02-07T23:56:15.776Z,-1.33
2023-02-07T23:58:44.931Z,-1.36
